createdAt,value
2018-10-02T00:00:26.310Z,8.83
2018-10-02T00:01:26.283Z,8.83
2018-10-02T00:02:26.258Z,8.87
2018-10-02T00:03:26.233Z,8.88
2018-10-02T00:04:26.210Z,8.84
2018-10-02T00:05:26.186Z,8.78
2018-10-02T00:06:26.161Z,8.84
2018-10-02T00:07:26.136Z,8.76
2018-10-02T00:08:26.112Z,8.78
2018-10-02T00:09:26.093Z,8.87
2018-10-02T00:10:26.064Z,8.76
2018-10-02T00:11:26.040Z,8.81
2018-10-02T00:12:26.016Z,8.83
2018-10-02T00:13:25.992Z,8.86
2018-10-02T00:14:25.967Z,8.78
2018-10-02T00:15:25.943Z,8.84
2018-10-02T00:16:25.919Z,8.72
2018-10-02T00:17:25.896Z,8.76
2018-10-02T00:18:26.621Z,8.78
2018-10-02T00:19:25.848Z,8.68
2018-10-02T00:20:25.822Z,8.73
2018-10-02T00:21:25.800Z,8.78
2018-10-02T00:22:25.774Z,8.68
2018-10-02T00:23:25.750Z,8.63
2018-10-02T00:24:25.726Z,8.65
2018-10-02T00:25:25.702Z,8.76
2018-10-02T00:26:25.677Z,8.76
2018-10-02T00:27:25.653Z,8.75
2018-10-02T00:28:25.629Z,8.62
2018-10-02T00:29:25.605Z,8.62
2018-10-02T00:30:25.580Z,8.62
2018-10-02T00:31:25.635Z,8.66
2018-10-02T00:32:25.817Z,8.60
2018-10-02T00:33:25.509Z,8.53
2018-10-02T00:34:25.484Z,8.54
2018-10-02T00:35:25.460Z,8.51
2018-10-02T00:36:25.436Z,8.48
2018-10-02T00:37:25.412Z,8.40
2018-10-02T00:38:25.387Z,8.37
2018-10-02T00:39:25.363Z,8.37
2018-10-02T00:40:25.339Z,8.30
2018-10-02T00:41:25.315Z,8.35
2018-10-02T00:42:25.292Z,8.32
2018-10-02T00:43:25.266Z,8.29
2018-10-02T00:44:25.244Z,8.30
2018-10-02T00:45:25.222Z,8.35
2018-10-02T00:46:25.194Z,8.28
2018-10-02T00:47:25.170Z,8.30
2018-10-02T00:48:25.145Z,8.26
2018-10-02T00:49:25.122Z,8.18
2018-10-02T00:50:25.097Z,8.18
2018-10-02T00:51:25.073Z,8.26
2018-10-02T00:52:25.049Z,8.18
2018-10-02T00:53:25.025Z,8.10
2018-10-02T00:54:24.999Z,8.07
2018-10-02T00:55:24.981Z,8.07
2018-10-02T00:56:24.952Z,8.12
2018-10-02T00:57:24.937Z,8.07
2018-10-02T00:58:24.903Z,8.11
2018-10-02T00:59:24.879Z,8.07
2018-10-02T01:00:26.356Z,8.02
2018-10-02T01:01:24.831Z,7.99
2018-10-02T01:02:24.806Z,7.90
2018-10-02T01:03:24.782Z,7.90
2018-10-02T01:04:24.758Z,7.75
2018-10-02T01:05:24.734Z,7.82
2018-10-02T01:06:24.709Z,7.79
2018-10-02T01:07:24.687Z,7.67
2018-10-02T01:08:24.666Z,7.72
2018-10-02T01:09:24.640Z,7.60
2018-10-02T01:10:24.611Z,7.58
2018-10-02T01:11:24.587Z,7.60
2018-10-02T01:12:24.562Z,7.56
2018-10-02T01:13:24.539Z,7.53
2018-10-02T01:14:24.513Z,7.49
2018-10-02T01:15:24.489Z,7.50
2018-10-02T01:16:24.466Z,7.40
2018-10-02T01:17:24.441Z,7.40
2018-10-02T01:18:24.415Z,7.34
2018-10-02T01:19:24.391Z,7.24
2018-10-02T01:20:24.368Z,7.24
2018-10-02T01:21:24.343Z,7.23
2018-10-02T01:22:24.317Z,7.31
2018-10-02T01:23:24.293Z,7.22
2018-10-02T01:24:24.268Z,7.26
2018-10-02T01:25:24.247Z,7.24
2018-10-02T01:26:24.218Z,7.26
2018-10-02T01:27:24.194Z,7.17
2018-10-02T01:28:24.169Z,7.15
2018-10-02T01:29:24.145Z,7.20
2018-10-02T01:30:24.119Z,7.19
2018-10-02T01:31:24.095Z,7.09
2018-10-02T01:32:24.071Z,7.07
2018-10-02T01:33:24.046Z,7.09
2018-10-02T01:34:24.021Z,7.08
2018-10-02T01:35:23.996Z,7.08
2018-10-02T01:36:23.973Z,7.13
2018-10-02T01:37:23.947Z,6.99
2018-10-02T01:38:23.921Z,7.12
2018-10-02T01:39:23.897Z,7.02
2018-10-02T01:40:23.874Z,7.08
2018-10-02T01:41:23.848Z,7.01
2018-10-02T01:42:23.826Z,7.08
2018-10-02T01:43:23.800Z,7.09
2018-10-02T01:44:23.777Z,7.07
2018-10-02T01:45:23.749Z,7.09
2018-10-02T01:46:23.724Z,7.16
2018-10-02T01:47:23.699Z,7.13
2018-10-02T01:48:23.675Z,7.13
2018-10-02T01:49:23.649Z,7.12
2018-10-02T01:50:23.624Z,7.13
2018-10-02T01:51:23.599Z,7.13
2018-10-02T01:52:23.574Z,7.16
2018-10-02T01:53:23.588Z,7.08
2018-10-02T01:54:23.525Z,6.99
2018-10-02T01:55:23.500Z,7.22
2018-10-02T01:56:23.476Z,7.27
2018-10-02T01:57:23.451Z,7.49
2018-10-02T01:58:23.425Z,7.53
2018-10-02T01:59:23.401Z,7.47
2018-10-02T02:00:23.376Z,7.49
2018-10-02T02:01:23.351Z,7.47
2018-10-02T02:02:23.342Z,7.56
2018-10-02T02:03:23.300Z,7.62
2018-10-02T02:04:23.277Z,7.72
2018-10-02T02:05:23.251Z,7.69
2018-10-02T02:06:23.225Z,7.74
2018-10-02T02:07:23.201Z,7.59
2018-10-02T02:08:23.175Z,7.63
2018-10-02T02:09:23.151Z,7.62
2018-10-02T02:10:23.126Z,7.47
2018-10-02T02:11:23.101Z,7.47
2018-10-02T02:12:23.079Z,7.47
2018-10-02T02:13:23.051Z,7.45
2018-10-02T02:14:23.026Z,7.31
2018-10-02T02:15:23.003Z,7.31
2018-10-02T02:16:22.976Z,7.26
2018-10-02T02:17:22.951Z,7.35
2018-10-02T02:18:22.929Z,7.35
2018-10-02T02:19:22.909Z,7.27
2018-10-02T02:20:22.877Z,7.32
2018-10-02T02:21:22.852Z,7.32
2018-10-02T02:22:22.826Z,7.31
2018-10-02T02:23:22.805Z,7.31
2018-10-02T02:24:22.779Z,7.31
2018-10-02T02:25:22.753Z,7.32
2018-10-02T02:26:22.727Z,7.32
2018-10-02T02:27:22.702Z,7.32
2018-10-02T02:28:22.677Z,7.37
2018-10-02T02:29:22.652Z,7.41
2018-10-02T02:30:22.631Z,7.42
2018-10-02T02:31:22.602Z,7.49
2018-10-02T02:32:22.578Z,7.53
2018-10-02T02:33:22.554Z,7.50
2018-10-02T02:34:22.528Z,7.53
2018-10-02T02:35:22.503Z,7.50
2018-10-02T02:36:22.480Z,7.50
2018-10-02T02:37:23.205Z,7.49
2018-10-02T02:38:22.429Z,7.55
2018-10-02T02:39:22.405Z,7.66
2018-10-02T02:40:22.379Z,7.63
2018-10-02T02:41:22.355Z,7.63
2018-10-02T02:42:22.337Z,7.66
2018-10-02T02:43:22.306Z,7.63
2018-10-02T02:44:22.281Z,7.62
2018-10-02T02:45:22.257Z,7.60
2018-10-02T02:46:22.234Z,7.55
2018-10-02T02:47:22.207Z,7.62
2018-10-02T02:48:22.185Z,7.62
2018-10-02T02:49:22.159Z,7.58
2018-10-02T02:50:22.132Z,7.67
2018-10-02T02:51:22.108Z,7.72
2018-10-02T02:52:22.091Z,7.77
2018-10-02T02:53:22.060Z,7.74
2018-10-02T02:54:22.035Z,7.75
2018-10-02T02:55:22.010Z,7.75
2018-10-02T02:56:21.986Z,7.74
2018-10-02T02:57:21.965Z,7.78
2018-10-02T02:58:21.937Z,7.75
2018-10-02T02:59:21.912Z,7.77
2018-10-02T03:00:21.890Z,7.75
2018-10-02T03:01:21.867Z,7.74
2018-10-02T03:02:21.838Z,7.82
2018-10-02T03:03:21.814Z,7.77
2018-10-02T03:04:21.788Z,7.85
2018-10-02T03:05:21.765Z,7.75
2018-10-02T03:06:21.787Z,7.77
2018-10-02T03:07:21.716Z,7.87
2018-10-02T03:08:21.698Z,7.66
2018-10-02T03:09:21.667Z,7.79
2018-10-02T03:10:21.642Z,7.62
2018-10-02T03:11:21.619Z,7.72
2018-10-02T03:12:21.593Z,7.60
2018-10-02T03:13:21.569Z,7.56
2018-10-02T03:14:21.545Z,7.62
2018-10-02T03:15:21.518Z,7.45
2018-10-02T03:16:21.496Z,7.49
2018-10-02T03:17:21.470Z,7.45
2018-10-02T03:18:21.444Z,7.45
2018-10-02T03:19:21.420Z,7.49
2018-10-02T03:20:21.401Z,7.42
2018-10-02T03:21:21.374Z,7.41
2018-10-02T03:22:21.354Z,7.45
2018-10-02T03:23:21.323Z,7.37
2018-10-02T03:24:21.297Z,7.32
2018-10-02T03:25:21.273Z,7.29
2018-10-02T03:26:21.248Z,7.29
2018-10-02T03:27:21.228Z,7.27
2018-10-02T03:28:21.199Z,7.27
2018-10-02T03:29:21.175Z,7.19
2018-10-02T03:30:21.151Z,7.19
2018-10-02T03:31:21.124Z,7.13
2018-10-02T03:32:21.101Z,7.17
2018-10-02T03:33:21.076Z,7.23
2018-10-02T03:34:21.050Z,7.13
2018-10-02T03:35:21.032Z,7.09
2018-10-02T03:36:21.002Z,7.08
2018-10-02T03:37:20.978Z,7.08
2018-10-02T03:38:20.952Z,7.09
2018-10-02T03:39:20.927Z,7.04
2018-10-02T03:40:20.906Z,7.13
2018-10-02T03:41:20.879Z,7.05
2018-10-02T03:42:20.862Z,7.20
2018-10-02T03:43:20.829Z,7.04
2018-10-02T03:44:20.805Z,7.04
2018-10-02T03:45:20.780Z,7.09
2018-10-02T03:46:20.754Z,7.19
2018-10-02T03:47:20.731Z,7.16
2018-10-02T03:48:20.705Z,7.01
2018-10-02T03:49:20.681Z,7.07
2018-10-02T03:50:20.657Z,7.08
2018-10-02T03:51:20.631Z,7.04
2018-10-02T03:52:20.606Z,7.08
2018-10-02T03:53:20.583Z,7.05
2018-10-02T03:54:20.556Z,7.08
2018-10-02T03:55:20.533Z,7.04
2018-10-02T03:56:20.509Z,7.05
2018-10-02T03:57:20.484Z,7.04
2018-10-02T03:58:20.457Z,6.99
2018-10-02T03:59:20.433Z,6.99
2018-10-02T04:00:20.410Z,6.99
2018-10-02T04:01:20.385Z,7.05
2018-10-02T04:02:20.357Z,6.98
2018-10-02T04:03:20.341Z,6.99
2018-10-02T04:04:20.308Z,6.98
2018-10-02T04:05:20.285Z,6.90
2018-10-02T04:06:20.259Z,6.98
2018-10-02T04:07:20.233Z,6.89
2018-10-02T04:08:20.209Z,6.94
2018-10-02T04:09:20.184Z,7.01
2018-10-02T04:10:20.158Z,6.86
2018-10-02T04:11:20.134Z,7.07
2018-10-02T04:12:20.108Z,7.01
2018-10-02T04:13:20.923Z,6.99
2018-10-02T04:14:20.059Z,7.04
2018-10-02T04:15:20.033Z,7.08
2018-10-02T04:16:20.009Z,7.16
2018-10-02T04:17:19.985Z,7.12
2018-10-02T04:18:19.958Z,7.20
2018-10-02T04:19:19.933Z,7.20
2018-10-02T04:20:19.909Z,7.24
2018-10-02T04:21:19.886Z,7.20
2018-10-02T04:22:19.858Z,7.23
2018-10-02T04:23:19.865Z,7.26
2018-10-02T04:24:19.809Z,7.24
2018-10-02T04:25:19.785Z,7.27
2018-10-02T04:26:19.761Z,7.24
2018-10-02T04:27:19.735Z,7.26
2018-10-02T04:28:19.722Z,7.22
2018-10-02T04:29:19.686Z,7.19
2018-10-02T04:30:19.660Z,7.22
2018-10-02T04:31:19.635Z,7.31
2018-10-02T04:32:19.610Z,7.32
2018-10-02T04:33:19.585Z,7.26
2018-10-02T04:34:19.622Z,7.32
2018-10-02T04:35:19.538Z,7.19
2018-10-02T04:36:19.511Z,7.17
2018-10-02T04:37:19.486Z,7.09
2018-10-02T04:38:19.461Z,7.07
2018-10-02T04:39:19.451Z,7.12
2018-10-02T04:40:19.411Z,7.13
2018-10-02T04:41:19.387Z,7.13
2018-10-02T04:42:19.361Z,7.09
2018-10-02T04:43:19.337Z,7.09
2018-10-02T04:44:19.311Z,7.02
2018-10-02T04:45:19.287Z,6.97
2018-10-02T04:46:19.261Z,6.99
2018-10-02T04:47:19.236Z,6.94
2018-10-02T04:48:19.212Z,6.89
2018-10-02T04:49:19.187Z,6.89
2018-10-02T04:50:19.161Z,6.99
2018-10-02T04:51:19.136Z,6.94
2018-10-02T04:52:19.111Z,7.01
2018-10-02T04:53:19.086Z,6.98
2018-10-02T04:54:19.061Z,6.95
2018-10-02T04:55:19.036Z,6.90
2018-10-02T04:56:19.042Z,6.94
2018-10-02T04:57:18.987Z,6.89
2018-10-02T04:58:18.964Z,6.97
2018-10-02T04:59:18.935Z,6.95
2018-10-02T05:00:18.910Z,6.97
2018-10-02T05:01:18.889Z,6.97
2018-10-02T05:02:18.872Z,6.94
2018-10-02T05:03:18.835Z,6.90
2018-10-02T05:04:18.810Z,6.91
2018-10-02T05:05:18.786Z,7.01
2018-10-02T05:06:18.760Z,6.90
2018-10-02T05:07:18.740Z,6.94
2018-10-02T05:08:18.721Z,6.91
2018-10-02T05:09:18.685Z,7.05
2018-10-02T05:10:18.661Z,6.99
2018-10-02T05:11:18.637Z,6.94
2018-10-02T05:12:18.609Z,6.95
2018-10-02T05:13:18.585Z,6.91
2018-10-02T05:14:18.664Z,6.97
2018-10-02T05:15:21.537Z,6.97
2018-10-02T05:16:18.510Z,6.87
2018-10-02T05:17:18.485Z,6.98
2018-10-02T05:18:18.459Z,6.95
2018-10-02T05:19:18.435Z,7.05
2018-10-02T05:20:18.410Z,6.98
2018-10-02T05:21:19.135Z,7.01
2018-10-02T05:22:18.359Z,7.01
2018-10-02T05:23:18.333Z,7.05
2018-10-02T05:24:18.309Z,6.98
2018-10-02T05:25:18.284Z,7.01
2018-10-02T05:26:18.258Z,7.02
2018-10-02T05:27:18.273Z,7.02
2018-10-02T05:28:18.208Z,7.16
2018-10-02T05:29:18.183Z,6.99
2018-10-02T05:30:18.158Z,7.15
2018-10-02T05:31:18.133Z,6.97
2018-10-02T05:32:18.108Z,6.99
2018-10-02T05:33:18.084Z,7.07
2018-10-02T05:34:18.058Z,7.09
2018-10-02T05:35:18.180Z,7.15
2018-10-02T05:36:18.008Z,7.16
2018-10-02T05:37:17.984Z,7.16
2018-10-02T05:38:17.958Z,7.04
2018-10-02T05:39:17.933Z,7.02
2018-10-02T05:40:17.910Z,7.08
2018-10-02T05:41:17.885Z,7.07
2018-10-02T05:42:17.862Z,7.15
2018-10-02T05:43:17.833Z,7.04
2018-10-02T05:44:17.810Z,7.08
2018-10-02T05:45:17.785Z,7.09
2018-10-02T05:46:17.758Z,7.13
2018-10-02T05:47:17.734Z,7.13
2018-10-02T05:48:17.708Z,7.12
2018-10-02T05:49:17.683Z,6.99
2018-10-02T05:50:17.658Z,7.05
2018-10-02T05:51:17.633Z,7.01
2018-10-02T05:52:17.610Z,7.05
2018-10-02T05:53:17.584Z,7.01
2018-10-02T05:54:17.558Z,7.05
2018-10-02T05:55:17.533Z,7.04
2018-10-02T05:56:17.508Z,6.95
2018-10-02T05:57:17.484Z,7.01
2018-10-02T05:58:17.498Z,6.98
2018-10-02T05:59:17.434Z,7.01
2018-10-02T06:00:17.408Z,6.98
2018-10-02T06:01:17.384Z,6.97
2018-10-02T06:02:17.358Z,7.09
2018-10-02T06:03:17.333Z,6.99
2018-10-02T06:04:17.312Z,6.97
2018-10-02T06:05:17.284Z,7.01
2018-10-02T06:06:17.258Z,7.07
2018-10-02T06:07:17.233Z,7.08
2018-10-02T06:08:17.211Z,7.13
2018-10-02T06:09:17.184Z,7.09
2018-10-02T06:10:17.158Z,7.08
2018-10-02T06:11:17.133Z,7.08
2018-10-02T06:12:17.108Z,7.12
2018-10-02T06:13:17.085Z,7.13
2018-10-02T06:14:17.058Z,7.15
2018-10-02T06:15:17.784Z,7.12
2018-10-02T06:16:17.012Z,7.12
2018-10-02T06:17:16.984Z,7.12
2018-10-02T06:18:16.958Z,7.20
2018-10-02T06:19:16.934Z,7.22
2018-10-02T06:20:16.909Z,7.19
2018-10-02T06:21:16.884Z,7.20
2018-10-02T06:22:16.858Z,7.19
2018-10-02T06:23:16.833Z,7.20
2018-10-02T06:24:16.809Z,7.31
2018-10-02T06:25:16.785Z,7.23
2018-10-02T06:26:19.010Z,7.24
2018-10-02T06:27:16.772Z,7.31
2018-10-02T06:28:16.709Z,7.34
2018-10-02T06:29:16.689Z,7.32
2018-10-02T06:30:16.714Z,7.40
2018-10-02T06:31:16.634Z,7.40
2018-10-02T06:32:16.611Z,7.44
2018-10-02T06:33:16.586Z,7.47
2018-10-02T06:34:16.559Z,7.49
2018-10-02T06:35:16.536Z,7.50
2018-10-02T06:36:16.510Z,7.50
2018-10-02T06:37:16.484Z,7.49
2018-10-02T06:38:16.480Z,7.52
2018-10-02T06:39:16.434Z,7.45
2018-10-02T06:40:16.409Z,7.53
2018-10-02T06:41:16.396Z,7.55
2018-10-02T06:42:16.361Z,7.55
2018-10-02T06:43:17.836Z,7.58
2018-10-02T06:44:16.310Z,7.58
2018-10-02T06:45:16.285Z,7.62
2018-10-02T06:46:16.264Z,7.60
2018-10-02T06:47:16.235Z,7.56
2018-10-02T06:48:16.211Z,7.59
2018-10-02T06:49:16.936Z,7.58
2018-10-02T06:50:16.160Z,7.58
2018-10-02T06:51:16.271Z,7.72
2018-10-02T06:52:16.320Z,7.75
2018-10-02T06:53:16.088Z,7.71
2018-10-02T06:54:16.061Z,7.85
2018-10-02T06:55:16.037Z,7.85
2018-10-02T06:56:16.017Z,7.81
2018-10-02T06:57:15.986Z,7.82
2018-10-02T06:58:15.961Z,7.87
2018-10-02T06:59:15.936Z,7.93
2018-10-02T07:00:15.912Z,7.97
2018-10-02T07:01:15.887Z,8.11
2018-10-02T07:02:15.862Z,8.15
2018-10-02T07:03:15.837Z,8.14
2018-10-02T07:04:15.812Z,8.07
2018-10-02T07:05:15.788Z,8.12
2018-10-02T07:06:15.762Z,8.11
2018-10-02T07:07:15.739Z,8.10
2018-10-02T07:08:15.714Z,8.12
2018-10-02T07:09:15.690Z,8.15
2018-10-02T07:10:15.665Z,8.17
2018-10-02T07:11:15.640Z,8.15
2018-10-02T07:12:15.616Z,8.18
2018-10-02T07:13:15.591Z,8.20
2018-10-02T07:14:15.565Z,8.21
2018-10-02T07:15:15.542Z,8.26
2018-10-02T07:16:15.517Z,8.22
2018-10-02T07:17:15.493Z,8.22
2018-10-02T07:18:15.467Z,8.26
2018-10-02T07:19:15.445Z,8.29
2018-10-02T07:20:15.419Z,8.42
2018-10-02T07:21:15.395Z,8.51
2018-10-02T07:22:15.369Z,8.63
2018-10-02T07:23:15.345Z,8.48
2018-10-02T07:24:15.321Z,8.62
2018-10-02T07:25:15.297Z,8.60
2018-10-02T07:26:15.272Z,8.58
2018-10-02T07:27:15.413Z,8.78
2018-10-02T07:28:15.232Z,8.96
2018-10-02T07:29:15.201Z,8.93
2018-10-02T07:30:15.176Z,8.76
2018-10-02T07:31:15.152Z,8.58
2018-10-02T07:32:15.128Z,8.69
2018-10-02T07:33:15.107Z,8.76
2018-10-02T07:34:15.080Z,8.97
2018-10-02T07:35:15.055Z,9.02
2018-10-02T07:36:15.031Z,8.97
2018-10-02T07:37:15.009Z,8.97
2018-10-02T07:38:14.982Z,9.02
2018-10-02T07:39:14.958Z,9.05
2018-10-02T07:40:14.935Z,9.05
2018-10-02T07:41:14.912Z,9.05
2018-10-02T07:42:14.892Z,9.02
2018-10-02T07:43:14.863Z,9.01
2018-10-02T07:44:14.840Z,9.25
2018-10-02T07:45:14.817Z,9.20
2018-10-02T07:46:14.790Z,9.13
2018-10-02T07:47:14.768Z,9.13
2018-10-02T07:48:14.772Z,9.15
2018-10-02T07:49:14.723Z,9.04
2018-10-02T07:50:14.696Z,9.01
2018-10-02T07:51:14.671Z,9.01
2018-10-02T07:52:14.648Z,9.05
2018-10-02T07:53:14.624Z,9.18
2018-10-02T07:54:14.599Z,9.34
2018-10-02T07:55:14.577Z,9.40
2018-10-02T07:56:14.553Z,9.42
2018-10-02T07:57:14.528Z,9.52
2018-10-02T07:58:14.503Z,9.46
2018-10-02T07:59:14.480Z,9.57
2018-10-02T08:00:14.456Z,9.67
2018-10-02T08:01:14.434Z,9.71
2018-10-02T08:02:14.411Z,9.83
2018-10-02T08:03:16.643Z,9.76
2018-10-02T08:04:14.366Z,9.94
2018-10-02T08:05:14.462Z,10.10
2018-10-02T08:06:14.314Z,10.15
2018-10-02T08:07:14.289Z,10.28
2018-10-02T08:08:14.272Z,10.30
2018-10-02T08:09:14.244Z,10.19
2018-10-02T08:10:14.219Z,10.07
2018-10-02T08:11:14.196Z,10.00
2018-10-02T08:12:14.236Z,9.94
2018-10-02T08:13:14.153Z,9.91
2018-10-02T08:14:14.126Z,9.68
2018-10-02T08:15:14.104Z,9.57
2018-10-02T08:16:14.078Z,9.49
2018-10-02T08:17:14.055Z,9.60
2018-10-02T08:18:14.031Z,9.88
2018-10-02T08:19:14.009Z,9.78
2018-10-02T08:20:13.985Z,9.94
2018-10-02T08:21:13.962Z,10.04
2018-10-02T08:22:13.938Z,10.01
2018-10-02T08:23:13.915Z,10.10
2018-10-02T08:24:13.893Z,10.19
2018-10-02T08:25:13.867Z,10.15
2018-10-02T08:26:13.844Z,10.21
2018-10-02T08:27:13.889Z,10.28
2018-10-02T08:28:13.797Z,10.46
2018-10-02T08:29:13.800Z,10.36
2018-10-02T08:30:13.861Z,10.10
2018-10-02T08:31:13.726Z,10.22
2018-10-02T08:32:13.706Z,10.33
2018-10-02T08:33:13.681Z,10.51
2018-10-02T08:34:13.656Z,10.65
2018-10-02T08:35:13.645Z,10.83
2018-10-02T08:36:13.700Z,10.83
2018-10-02T08:37:13.588Z,10.63
2018-10-02T08:38:13.569Z,10.24
2018-10-02T08:39:13.542Z,10.17
2018-10-02T08:40:13.520Z,10.12
2018-10-02T08:41:13.496Z,10.21
2018-10-02T08:42:13.472Z,10.28
2018-10-02T08:43:13.461Z,10.33
2018-10-02T08:44:13.427Z,10.40
2018-10-02T08:45:13.404Z,10.55
2018-10-02T08:46:14.881Z,10.53
2018-10-02T08:47:13.357Z,10.74
2018-10-02T08:48:13.334Z,10.83
2018-10-02T08:49:13.311Z,10.62
2018-10-02T08:50:13.288Z,10.77
2018-10-02T08:51:13.264Z,10.83
2018-10-02T08:52:13.444Z,10.78
2018-10-02T08:53:13.219Z,10.56
2018-10-02T08:54:13.196Z,10.55
2018-10-02T08:55:13.172Z,10.60
2018-10-02T08:56:13.150Z,10.84
2018-10-02T08:57:13.126Z,10.91
2018-10-02T08:58:13.103Z,10.78
2018-10-02T08:59:13.081Z,10.99
2018-10-02T09:00:13.058Z,11.20
2018-10-02T09:01:13.110Z,11.25
2018-10-02T09:02:13.011Z,11.06
2018-10-02T09:03:13.047Z,10.94
2018-10-02T09:04:12.966Z,10.84
2018-10-02T09:05:12.945Z,10.68
2018-10-02T09:06:12.921Z,10.70
2018-10-02T09:07:12.899Z,10.65
2018-10-02T09:08:14.376Z,10.91
2018-10-02T09:09:12.853Z,11.01
2018-10-02T09:10:12.828Z,11.13
2018-10-02T09:11:12.805Z,11.16
2018-10-02T09:12:12.784Z,11.29
2018-10-02T09:13:12.760Z,11.46
2018-10-02T09:14:12.737Z,11.52
2018-10-02T09:15:12.716Z,11.64
2018-10-02T09:16:12.871Z,11.54
2018-10-02T09:17:12.670Z,11.62
2018-10-02T09:18:12.646Z,11.68
2018-10-02T09:19:12.623Z,11.64
2018-10-02T09:20:12.603Z,11.65
2018-10-02T09:21:12.578Z,11.62
2018-10-02T09:22:12.555Z,11.72
2018-10-02T09:23:12.532Z,11.75
2018-10-02T09:24:12.510Z,11.64
2018-10-02T09:25:12.487Z,11.77
2018-10-02T09:26:12.465Z,11.83
2018-10-02T09:27:12.441Z,11.94
2018-10-02T09:28:12.546Z,11.97
2018-10-02T09:29:12.397Z,12.05
2018-10-02T09:30:15.446Z,12.06
2018-10-02T09:31:12.390Z,12.24
2018-10-02T09:32:12.329Z,11.94
2018-10-02T09:33:12.308Z,12.05
2018-10-02T09:34:12.284Z,12.24
2018-10-02T09:35:12.261Z,12.51
2018-10-02T09:36:12.239Z,12.54
2018-10-02T09:37:12.306Z,12.67
2018-10-02T09:38:12.194Z,12.59
2018-10-02T09:39:12.171Z,12.41
2018-10-02T09:40:12.149Z,12.54
2018-10-02T09:41:12.127Z,12.44
2018-10-02T09:42:12.104Z,12.48
2018-10-02T09:43:12.083Z,12.57
2018-10-02T09:44:12.060Z,12.52
2018-10-02T09:45:12.039Z,12.49
2018-10-02T09:46:12.018Z,12.38
2018-10-02T09:47:11.995Z,12.27
2018-10-02T09:48:11.975Z,12.33
2018-10-02T09:49:11.950Z,12.38
2018-10-02T09:50:11.927Z,12.41
2018-10-02T09:51:11.906Z,12.39
2018-10-02T09:52:12.634Z,12.48
2018-10-02T09:53:11.863Z,12.51
2018-10-02T09:54:11.839Z,12.46
2018-10-02T09:55:11.818Z,12.54
2018-10-02T09:56:11.796Z,12.74
2018-10-02T09:57:11.774Z,12.66
2018-10-02T09:58:11.751Z,12.59
2018-10-02T09:59:11.733Z,12.69
2018-10-02T10:00:11.707Z,12.64
2018-10-02T10:01:11.685Z,12.67
2018-10-02T10:02:11.663Z,12.81
2018-10-02T10:03:11.642Z,12.79
2018-10-02T10:04:11.635Z,12.81
2018-10-02T10:05:11.597Z,12.69
2018-10-02T10:06:11.574Z,12.82
2018-10-02T10:07:11.553Z,12.37
2018-10-02T10:08:11.531Z,12.37
2018-10-02T10:09:11.513Z,12.08
2018-10-02T10:10:11.489Z,12.16
2018-10-02T10:11:11.465Z,12.48
2018-10-02T10:12:11.447Z,12.60
2018-10-02T10:13:11.422Z,12.71
2018-10-02T10:14:11.400Z,12.69
2018-10-02T10:15:11.377Z,12.60
2018-10-02T10:16:11.359Z,12.46
2018-10-02T10:17:11.522Z,12.13
2018-10-02T10:18:11.313Z,12.06
2018-10-02T10:19:12.039Z,11.96
2018-10-02T10:20:11.267Z,11.87
2018-10-02T10:21:11.245Z,11.89
2018-10-02T10:22:11.221Z,12.05
2018-10-02T10:23:11.200Z,12.15
2018-10-02T10:24:11.179Z,12.16
2018-10-02T10:25:11.156Z,12.26
2018-10-02T10:26:11.132Z,12.42
2018-10-02T10:27:11.112Z,12.37
2018-10-02T10:28:11.092Z,12.48
2018-10-02T10:29:11.068Z,12.45
2018-10-02T10:30:12.547Z,12.59
2018-10-02T10:31:11.023Z,12.84
2018-10-02T10:32:11.001Z,12.95
2018-10-02T10:33:10.978Z,12.92
2018-10-02T10:34:10.954Z,12.74
2018-10-02T10:35:10.934Z,12.77
2018-10-02T10:36:10.912Z,12.96
2018-10-02T10:37:10.889Z,13.00
2018-10-02T10:38:10.868Z,12.97
2018-10-02T10:39:10.845Z,12.81
2018-10-02T10:40:10.823Z,12.92
2018-10-02T10:41:10.803Z,12.57
2018-10-02T10:42:10.779Z,12.09
2018-10-02T10:43:10.758Z,12.13
2018-10-02T10:44:10.735Z,12.37
2018-10-02T10:45:10.716Z,12.49
2018-10-02T10:46:10.691Z,12.27
2018-10-02T10:47:10.670Z,12.24
2018-10-02T10:48:10.647Z,12.26
2018-10-02T10:49:10.625Z,12.62
2018-10-02T10:50:10.603Z,12.95
2018-10-02T10:51:10.581Z,12.87
2018-10-02T10:52:10.561Z,12.99
2018-10-02T10:53:10.539Z,12.51
2018-10-02T10:54:10.519Z,12.27
2018-10-02T10:55:10.498Z,12.12
2018-10-02T10:56:10.473Z,12.16
2018-10-02T10:57:10.451Z,12.19
2018-10-02T10:58:10.431Z,12.37
2018-10-02T10:59:10.408Z,12.48
2018-10-02T11:00:10.389Z,12.57
2018-10-02T11:01:10.365Z,12.49
2018-10-02T11:02:10.343Z,12.34
2018-10-02T11:03:10.519Z,12.21
2018-10-02T11:04:10.298Z,12.11
2018-10-02T11:05:10.344Z,12.15
2018-10-02T11:06:10.254Z,12.26
2018-10-02T11:07:10.231Z,12.46
2018-10-02T11:08:10.208Z,12.64
2018-10-02T11:09:10.191Z,12.88
2018-10-02T11:10:10.168Z,12.99
2018-10-02T11:11:10.144Z,13.00
2018-10-02T11:12:10.121Z,12.88
2018-10-02T11:13:10.100Z,13.12
2018-10-02T11:14:10.081Z,13.03
2018-10-02T11:15:10.078Z,13.22
2018-10-02T11:16:10.035Z,13.33
2018-10-02T11:17:10.013Z,13.47
2018-10-02T11:18:09.990Z,13.49
2018-10-02T11:19:09.969Z,13.40
2018-10-02T11:20:09.949Z,13.51
2018-10-02T11:21:09.926Z,13.37
2018-10-02T11:22:09.904Z,13.43
2018-10-02T11:23:09.885Z,13.37
2018-10-02T11:24:09.945Z,13.22
2018-10-02T11:25:09.851Z,13.58
2018-10-02T11:26:09.819Z,13.54
2018-10-02T11:27:09.798Z,13.51
2018-10-02T11:28:09.778Z,13.25
2018-10-02T11:29:09.756Z,12.97
2018-10-02T11:30:09.735Z,12.74
2018-10-02T11:31:09.724Z,12.57
2018-10-02T11:32:09.692Z,12.66
2018-10-02T11:33:09.672Z,12.85
2018-10-02T11:34:09.654Z,12.79
2018-10-02T11:35:09.629Z,12.84
2018-10-02T11:36:09.608Z,12.88
2018-10-02T11:37:09.615Z,12.97
2018-10-02T11:38:09.573Z,13.06
2018-10-02T11:39:09.546Z,12.95
2018-10-02T11:40:09.528Z,12.97
2018-10-02T11:41:09.504Z,12.78
2018-10-02T11:42:09.482Z,12.82
2018-10-02T11:43:09.505Z,12.67
2018-10-02T11:44:09.468Z,12.81
2018-10-02T11:45:09.422Z,12.97
2018-10-02T11:46:09.397Z,13.17
2018-10-02T11:47:09.378Z,13.09
2018-10-02T11:48:09.357Z,12.96
2018-10-02T11:49:09.372Z,12.96
2018-10-02T11:50:09.314Z,13.00
2018-10-02T11:51:09.294Z,13.21
2018-10-02T11:52:09.272Z,13.59
2018-10-02T11:53:09.251Z,13.87
2018-10-02T11:54:09.230Z,13.55
2018-10-02T11:55:09.265Z,13.44
2018-10-02T11:56:09.190Z,13.47
2018-10-02T11:57:09.169Z,13.58
2018-10-02T11:58:09.147Z,13.77
2018-10-02T11:59:09.127Z,13.74
2018-10-02T12:00:09.106Z,13.77
2018-10-02T12:01:09.263Z,14.02
2018-10-02T12:02:09.065Z,13.98
2018-10-02T12:03:10.800Z,13.99
2018-10-02T12:04:09.024Z,13.84
2018-10-02T12:05:09.004Z,13.56
2018-10-02T12:06:08.982Z,13.71
2018-10-02T12:07:08.962Z,13.20
2018-10-02T12:08:08.941Z,13.06
2018-10-02T12:09:08.932Z,13.22
2018-10-02T12:10:08.905Z,13.44
2018-10-02T12:11:08.880Z,13.61
2018-10-02T12:12:08.860Z,13.56
2018-10-02T12:13:08.841Z,13.46
2018-10-02T12:14:08.937Z,13.74
2018-10-02T12:15:08.810Z,13.84
2018-10-02T12:16:08.779Z,13.99
2018-10-02T12:17:08.759Z,13.96
2018-10-02T12:18:08.737Z,13.89
2018-10-02T12:19:08.718Z,13.83
2018-10-02T12:20:08.697Z,13.83
2018-10-02T12:21:08.676Z,13.70
2018-10-02T12:22:11.659Z,13.74
2018-10-02T12:23:08.636Z,13.67
2018-10-02T12:24:08.616Z,13.65
2018-10-02T12:25:08.595Z,13.55
2018-10-02T12:26:08.575Z,13.47
2018-10-02T12:27:08.553Z,13.63
2018-10-02T12:28:08.534Z,13.61
2018-10-02T12:29:08.513Z,13.59
2018-10-02T12:30:08.494Z,13.61
2018-10-02T12:31:08.534Z,13.61
2018-10-02T12:32:08.452Z,13.46
2018-10-02T12:33:08.433Z,13.51
2018-10-02T12:34:08.410Z,13.71
2018-10-02T12:35:08.392Z,13.69
2018-10-02T12:36:08.372Z,13.89
2018-10-02T12:37:08.379Z,13.77
2018-10-02T12:38:08.329Z,13.71
2018-10-02T12:39:08.322Z,13.55
2018-10-02T12:40:08.289Z,13.15
2018-10-02T12:41:08.270Z,13.52
2018-10-02T12:42:08.248Z,13.74
2018-10-02T12:43:08.229Z,13.95
2018-10-02T12:44:08.208Z,13.98
2018-10-02T12:45:08.188Z,14.10
2018-10-02T12:46:08.223Z,14.29
2018-10-02T12:47:08.224Z,14.35
2018-10-02T12:48:08.128Z,14.52
2018-10-02T12:49:08.108Z,14.57
2018-10-02T12:50:08.087Z,14.43
2018-10-02T12:51:08.067Z,14.29
2018-10-02T12:52:08.141Z,14.38
2018-10-02T12:53:08.094Z,14.44
2018-10-02T12:54:08.007Z,14.31
2018-10-02T12:55:07.986Z,14.19
2018-10-02T12:56:07.967Z,14.32
2018-10-02T12:57:07.951Z,14.43
2018-10-02T12:58:07.925Z,14.52
2018-10-02T12:59:08.658Z,14.43
2018-10-02T13:00:07.889Z,14.39
2018-10-02T13:01:07.868Z,14.54
2018-10-02T13:02:07.848Z,14.53
2018-10-02T13:03:07.830Z,14.50
2018-10-02T13:04:07.809Z,14.67
2018-10-02T13:05:07.788Z,14.68
2018-10-02T13:06:07.769Z,14.67
2018-10-02T13:07:07.748Z,14.21
2018-10-02T13:08:07.730Z,14.06